sensor_id;sensor_type;location;lat;lon;timestamp;pressure;altitude;pressure_sealevel;temperature;humidity
57594;BME280;43423;46.510;6.686;2024-01-06T00:01:47;95263.78;;;5.46;100.00
57594;BME280;43423;46.510;6.686;2024-01-06T00:04:13;95269.94;;;5.61;100.00
57594;BME280;43423;46.510;6.686;2024-01-06T00:06:38;95268.19;;;5.78;100.00
57594;BME280;43423;46.510;6.686;2024-01-06T00:09:04;95267.63;;;5.74;100.00
57594;BME280;43423;46.510;6.686;2024-01-06T00:11:30;95275.81;;;5.74;100.00
57594;BME280;43423;46.510;6.686;2024-01-06T00:13:55;95266.03;;;5.32;100.00
57594;BME280;43423;46.510;6.686;2024-01-06T00:16:21;95269.09;;;5.55;100.00
57594;BME280;43423;46.510;6.686;2024-01-06T00:18:47;95271.75;;;5.49;100.00
57594;BME280;43423;46.510;6.686;2024-01-06T00:21:13;95269.22;;;5.46;100.00
57594;BME280;43423;46.510;6.686;2024-01-06T00:23:42;95266.38;;;5.55;100.00
57594;BME280;43423;46.510;6.686;2024-01-06T00:26:09;95264.31;;;5.50;100.00
57594;BME280;43423;46.510;6.686;2024-01-06T00:28:35;95268.25;;;5.49;100.00
57594;BME280;43423;46.510;6.686;2024-01-06T00:31:00;95277.81;;;5.59;100.00
57594;BME280;43423;46.510;6.686;2024-01-06T00:33:26;95266.28;;;5.49;100.00
57594;BME280;43423;46.510;6.686;2024-01-06T00:35:52;95255.66;;;5.51;100.00
57594;BME280;43423;46.510;6.686;2024-01-06T00:38:17;95260.53;;;5.62;100.00
57594;BME280;43423;46.510;6.686;2024-01-06T00:40:44;95272.00;;;5.51;100.00
57594;BME280;43423;46.510;6.686;2024-01-06T00:43:09;95274.44;;;5.64;100.00
57594;BME280;43423;46.510;6.686;2024-01-06T00:45:35;95280.00;;;5.55;100.00
57594;BME280;43423;46.510;6.686;2024-01-06T00:48:00;95278.03;;;5.55;100.00
57594;BME280;43423;46.510;6.686;2024-01-06T00:50:26;95277.66;;;5.48;100.00
57594;BME280;43423;46.510;6.686;2024-01-06T00:52:52;95282.88;;;5.66;100.00
57594;BME280;43423;46.510;6.686;2024-01-06T00:55:20;95275.41;;;5.81;100.00
57594;BME280;43423;46.510;6.686;2024-01-06T00:57:46;95271.25;;;5.51;100.00
57594;BME280;43423;46.510;6.686;2024-01-06T01:00:13;95270.47;;;5.65;100.00
57594;BME280;43423;46.510;6.686;2024-01-06T01:02:39;95269.13;;;5.40;100.00
57594;BME280;43423;46.510;6.686;2024-01-06T01:05:04;95273.84;;;5.40;100.00
57594;BME280;43423;46.510;6.686;2024-01-06T01:07:30;95276.31;;;5.58;100.00
57594;BME280;43423;46.510;6.686;2024-01-06T01:09:56;95279.69;;;5.68;100.00
57594;BME280;43423;46.510;6.686;2024-01-06T01:12:23;95291.06;;;5.66;100.00
57594;BME280;43423;46.510;6.686;2024-01-06T01:14:49;95291.50;;;5.79;100.00
57594;BME280;43423;46.510;6.686;2024-01-06T01:17:15;95299.38;;;5.57;100.00
57594;BME280;43423;46.510;6.686;2024-01-06T01:19:40;95296.06;;;5.53;100.00
57594;BME280;43423;46.510;6.686;2024-01-06T01:22:06;95303.72;;;5.49;100.00
57594;BME280;43423;46.510;6.686;2024-01-06T01:24:32;95297.41;;;5.43;100.00
57594;BME280;43423;46.510;6.686;2024-01-06T01:26:58;95298.25;;;5.49;100.00
57594;BME280;43423;46.510;6.686;2024-01-06T01:29:23;95304.38;;;5.44;100.00
57594;BME280;43423;46.510;6.686;2024-01-06T01:31:49;95309.44;;;5.36;100.00
57594;BME280;43423;46.510;6.686;2024-01-06T01:34:14;95309.91;;;5.35;100.00
57594;BME280;43423;46.510;6.686;2024-01-06T01:36:40;95313.88;;;5.33;100.00
57594;BME280;43423;46.510;6.686;2024-01-06T01:39:06;95329.47;;;5.48;100.00
57594;BME280;43423;46.510;6.686;2024-01-06T01:41:32;95326.56;;;5.37;100.00
57594;BME280;43423;46.510;6.686;2024-01-06T01:43:57;95333.22;;;5.36;100.00
57594;BME280;43423;46.510;6.686;2024-01-06T01:46:30;95329.53;;;5.68;100.00
57594;BME280;43423;46.510;6.686;2024-01-06T01:48:57;95332.19;;;5.48;100.00
57594;BME280;43423;46.510;6.686;2024-01-06T01:51:32;95337.16;;;5.49;100.00
57594;BME280;43423;46.510;6.686;2024-01-06T01:54:01;95334.56;;;5.40;100.00
57594;BME280;43423;46.510;6.686;2024-01-06T01:56:30;95336.81;;;5.42;100.00
57594;BME280;43423;46.510;6.686;2024-01-06T01:59:01;95340.94;;;5.37;100.00
57594;BME280;43423;46.510;6.686;2024-01-06T02:01:29;95341.59;;;5.47;100.00
57594;BME280;43423;46.510;6.686;2024-01-06T02:03:55;95331.06;;;5.40;100.00
57594;BME280;43423;46.510;6.686;2024-01-06T02:06:20;95335.88;;;5.30;100.00
57594;BME280;43423;46.510;6.686;2024-01-06T02:08:46;95343.22;;;5.39;100.00
57594;BME280;43423;46.510;6.686;2024-01-06T02:11:12;95341.97;;;5.40;100.00
57594;BME280;43423;46.510;6.686;2024-01-06T02:13:37;95343.00;;;5.42;100.00
57594;BME280;43423;46.510;6.686;2024-01-06T02:16:04;95352.50;;;5.47;100.00
57594;BME280;43423;46.510;6.686;2024-01-06T02:18:33;95356.34;;;5.55;100.00
57594;BME280;43423;46.510;6.686;2024-01-06T02:21:00;95367.38;;;5.31;100.00
57594;BME280;43423;46.510;6.686;2024-01-06T02:23:27;95366.88;;;5.32;100.00
57594;BME280;43423;46.510;6.686;2024-01-06T02:25:53;95364.91;;;5.48;100.00
57594;BME280;43423;46.510;6.686;2024-01-06T02:28:18;95359.66;;;5.29;100.00
57594;BME280;43423;46.510;6.686;2024-01-06T02:30:44;95369.41;;;5.36;100.00
57594;BME280;43423;46.510;6.686;2024-01-06T02:33:10;95362.09;;;5.57;100.00
57594;BME280;43423;46.510;6.686;2024-01-06T02:35:35;95357.19;;;5.61;100.00
57594;BME280;43423;46.510;6.686;2024-01-06T02:38:01;95360.31;;;5.54;100.00
57594;BME280;43423;46.510;6.686;2024-01-06T02:40:27;95361.72;;;5.35;100.00
57594;BME280;43423;46.510;6.686;2024-01-06T02:42:53;95357.09;;;5.26;100.00
57594;BME280;43423;46.510;6.686;2024-01-06T02:45:19;95363.13;;;5.45;100.00
57594;BME280;43423;46.510;6.686;2024-01-06T02:47:44;95366.88;;;5.47;100.00
57594;BME280;43423;46.510;6.686;2024-01-06T02:50:10;95370.38;;;5.48;100.00
57594;BME280;43423;46.510;6.686;2024-01-06T02:52:35;95364.25;;;5.23;100.00
57594;BME280;43423;46.510;6.686;2024-01-06T02:55:01;95372.50;;;5.58;100.00
57594;BME280;43423;46.510;6.686;2024-01-06T02:57:30;95370.75;;;5.55;100.00
57594;BME280;43423;46.510;6.686;2024-01-06T02:59:56;95369.59;;;5.62;100.00
57594;BME280;43423;46.510;6.686;2024-01-06T03:02:22;95368.13;;;5.46;100.00
57594;BME280;43423;46.510;6.686;2024-01-06T03:04:48;95375.06;;;5.32;100.00
57594;BME280;43423;46.510;6.686;2024-01-06T03:07:14;95378.25;;;5.31;100.00
57594;BME280;43423;46.510;6.686;2024-01-06T03:09:40;95374.69;;;5.40;100.00
57594;BME280;43423;46.510;6.686;2024-01-06T03:12:06;95369.50;;;5.42;100.00
57594;BME280;43423;46.510;6.686;2024-01-06T03:14:35;95360.13;;;5.43;100.00
57594;BME280;43423;46.510;6.686;2024-01-06T03:17:01;95362.28;;;5.39;100.00
57594;BME280;43423;46.510;6.686;2024-01-06T03:19:29;95367.00;;;5.38;100.00
57594;BME280;43423;46.510;6.686;2024-01-06T03:21:54;95372.63;;;5.35;100.00
57594;BME280;43423;46.510;6.686;2024-01-06T03:24:23;95369.63;;;5.47;100.00
57594;BME280;43423;46.510;6.686;2024-01-06T03:26:49;95368.00;;;5.11;100.00
57594;BME280;43423;46.510;6.686;2024-01-06T03:29:15;95369.06;;;5.14;100.00
57594;BME280;43423;46.510;6.686;2024-01-06T03:31:44;95372.06;;;5.16;100.00
57594;BME280;43423;46.510;6.686;2024-01-06T03:34:11;95372.03;;;5.01;100.00
57594;BME280;43423;46.510;6.686;2024-01-06T03:36:37;95371.19;;;4.95;100.00
57594;BME280;43423;46.510;6.686;2024-01-06T03:39:03;95366.25;;;5.23;100.00
57594;BME280;43423;46.510;6.686;2024-01-06T03:41:28;95375.22;;;4.99;100.00
57594;BME280;43423;46.510;6.686;2024-01-06T03:43:54;95384.94;;;5.15;100.00
57594;BME280;43423;46.510;6.686;2024-01-06T03:46:20;95376.09;;;5.06;100.00
57594;BME280;43423;46.510;6.686;2024-01-06T03:48:46;95382.56;;;5.08;100.00
57594;BME280;43423;46.510;6.686;2024-01-06T03:51:12;95372.31;;;5.03;100.00
57594;BME280;43423;46.510;6.686;2024-01-06T03:53:38;95374.88;;;5.07;100.00
57594;BME280;43423;46.510;6.686;2024-01-06T03:56:06;95377.13;;;5.23;100.00
57594;BME280;43423;46.510;6.686;2024-01-06T03:58:32;95391.78;;;5.11;100.00
57594;BME280;43423;46.510;6.686;2024-01-06T04:00:57;95394.19;;;4.94;100.00
57594;BME280;43423;46.510;6.686;2024-01-06T04:03:23;95397.31;;;5.01;100.00
57594;BME280;43423;46.510;6.686;2024-01-06T04:05:49;95392.16;;;5.18;100.00
57594;BME280;43423;46.510;6.686;2024-01-06T04:08:15;95390.66;;;5.32;100.00
57594;BME280;43423;46.510;6.686;2024-01-06T04:10:40;95385.97;;;5.32;100.00
57594;BME280;43423;46.510;6.686;2024-01-06T04:13:07;95384.72;;;5.19;100.00
57594;BME280;43423;46.510;6.686;2024-01-06T04:15:33;95381.75;;;5.31;100.00
57594;BME280;43423;46.510;6.686;2024-01-06T04:18:02;95386.25;;;5.35;100.00
57594;BME280;43423;46.510;6.686;2024-01-06T04:20:28;95393.00;;;5.10;100.00
57594;BME280;43423;46.510;6.686;2024-01-06T04:22:54;95387.00;;;4.82;100.00
57594;BME280;43423;46.510;6.686;2024-01-06T04:25:20;95388.03;;;5.08;100.00
57594;BME280;43423;46.510;6.686;2024-01-06T04:27:47;95388.69;;;5.18;100.00
57594;BME280;43423;46.510;6.686;2024-01-06T04:30:14;95389.84;;;4.87;100.00
57594;BME280;43423;46.510;6.686;2024-01-06T04:32:40;95386.81;;;4.70;100.00
57594;BME280;43423;46.510;6.686;2024-01-06T04:35:06;95387.25;;;4.93;100.00
57594;BME280;43423;46.510;6.686;2024-01-06T04:37:31;95390.06;;;4.98;100.00
57594;BME280;43423;46.510;6.686;2024-01-06T04:39:57;95393.88;;;4.77;100.00
57594;BME280;43423;46.510;6.686;2024-01-06T04:42:23;95392.84;;;4.74;100.00
57594;BME280;43423;46.510;6.686;2024-01-06T04:44:49;95394.66;;;4.54;100.00
57594;BME280;43423;46.510;6.686;2024-01-06T04:47:15;95409.63;;;4.49;100.00
57594;BME280;43423;46.510;6.686;2024-01-06T04:49:41;95405.72;;;4.89;100.00
57594;BME280;43423;46.510;6.686;2024-01-06T04:52:07;95409.69;;;4.64;100.00
57594;BME280;43423;46.510;6.686;2024-01-06T04:54:32;95408.94;;;4.63;100.00
57594;BME280;43423;46.510;6.686;2024-01-06T04:56:58;95409.75;;;4.79;100.00
57594;BME280;43423;46.510;6.686;2024-01-06T04:59:24;95410.16;;;4.62;100.00
57594;BME280;43423;46.510;6.686;2024-01-06T05:01:51;95405.94;;;4.61;100.00
57594;BME280;43423;46.510;6.686;2024-01-06T05:04:17;95412.41;;;4.64;100.00
57594;BME280;43423;46.510;6.686;2024-01-06T05:06:43;95413.97;;;4.56;100.00
57594;BME280;43423;46.510;6.686;2024-01-06T05:09:09;95409.88;;;4.60;100.00
57594;BME280;43423;46.510;6.686;2024-01-06T05:11:35;95414.66;;;4.65;100.00
57594;BME280;43423;46.510;6.686;2024-01-06T05:14:00;95420.63;;;4.79;100.00
57594;BME280;43423;46.510;6.686;2024-01-06T05:16:26;95420.00;;;4.84;100.00
57594;BME280;43423;46.510;6.686;2024-01-06T05:18:53;95423.63;;;5.19;100.00
57594;BME280;43423;46.510;6.686;2024-01-06T05:21:19;95417.69;;;4.91;100.00
57594;BME280;43423;46.510;6.686;2024-01-06T05:23:45;95425.81;;;5.30;100.00
57594;BME280;43423;46.510;6.686;2024-01-06T05:26:11;95424.50;;;5.25;100.00
57594;BME280;43423;46.510;6.686;2024-01-06T05:28:37;95424.56;;;5.16;100.00
57594;BME280;43423;46.510;6.686;2024-01-06T05:31:03;95424.56;;;5.16;100.00
57594;BME280;43423;46.510;6.686;2024-01-06T05:33:28;95419.56;;;5.00;100.00
57594;BME280;43423;46.510;6.686;2024-01-06T05:35:54;95415.84;;;5.27;100.00
57594;BME280;43423;46.510;6.686;2024-01-06T05:38:19;95417.38;;;4.89;100.00
57594;BME280;43423;46.510;6.686;2024-01-06T05:40:45;95422.06;;;4.89;100.00
57594;BME280;43423;46.510;6.686;2024-01-06T05:43:11;95422.88;;;4.80;100.00
57594;BME280;43423;46.510;6.686;2024-01-06T05:45:36;95428.25;;;4.89;100.00
57594;BME280;43423;46.510;6.686;2024-01-06T05:48:04;95427.78;;;4.76;100.00
57594;BME280;43423;46.510;6.686;2024-01-06T05:50:30;95430.38;;;4.70;100.00
57594;BME280;43423;46.510;6.686;2024-01-06T05:52:55;95438.47;;;4.80;100.00
57594;BME280;43423;46.510;6.686;2024-01-06T05:55:21;95440.91;;;4.78;100.00
57594;BME280;43423;46.510;6.686;2024-01-06T05:57:47;95425.50;;;5.13;100.00
57594;BME280;43423;46.510;6.686;2024-01-06T06:00:13;95437.53;;;5.07;100.00
57594;BME280;43423;46.510;6.686;2024-01-06T06:02:39;95437.09;;;4.84;100.00
57594;BME280;43423;46.510;6.686;2024-01-06T06:05:05;95439.69;;;4.79;100.00
57594;BME280;43423;46.510;6.686;2024-01-06T06:07:31;95443.31;;;4.61;100.00
57594;BME280;43423;46.510;6.686;2024-01-06T06:09:56;95442.66;;;4.90;100.00
57594;BME280;43423;46.510;6.686;2024-01-06T06:12:22;95449.44;;;4.70;100.00
57594;BME280;43423;46.510;6.686;2024-01-06T06:14:48;95451.47;;;4.85;100.00
57594;BME280;43423;46.510;6.686;2024-01-06T06:17:13;95438.00;;;5.20;100.00
57594;BME280;43423;46.510;6.686;2024-01-06T06:19:39;95455.25;;;5.02;100.00
57594;BME280;43423;46.510;6.686;2024-01-06T06:22:04;95440.78;;;4.96;100.00
57594;BME280;43423;46.510;6.686;2024-01-06T06:24:30;95450.41;;;5.06;100.00
57594;BME280;43423;46.510;6.686;2024-01-06T06:26:56;95453.13;;;5.06;100.00
57594;BME280;43423;46.510;6.686;2024-01-06T06:29:22;95445.72;;;4.83;100.00
57594;BME280;43423;46.510;6.686;2024-01-06T06:31:47;95447.88;;;4.79;100.00
57594;BME280;43423;46.510;6.686;2024-01-06T06:34:14;95454.75;;;4.89;100.00
57594;BME280;43423;46.510;6.686;2024-01-06T06:36:39;95458.00;;;5.02;100.00
57594;BME280;43423;46.510;6.686;2024-01-06T06:39:05;95456.56;;;4.92;100.00
57594;BME280;43423;46.510;6.686;2024-01-06T06:41:31;95452.38;;;5.06;100.00
57594;BME280;43423;46.510;6.686;2024-01-06T06:43:59;95452.97;;;4.86;100.00
57594;BME280;43423;46.510;6.686;2024-01-06T06:46:25;95453.84;;;4.68;100.00
57594;BME280;43423;46.510;6.686;2024-01-06T06:48:51;95452.84;;;4.56;100.00
57594;BME280;43423;46.510;6.686;2024-01-06T06:51:17;95451.63;;;4.81;100.00
57594;BME280;43423;46.510;6.686;2024-01-06T06:53:42;95451.19;;;4.97;100.00
57594;BME280;43423;46.510;6.686;2024-01-06T06:56:08;95448.06;;;4.75;100.00
57594;BME280;43423;46.510;6.686;2024-01-06T06:58:34;95443.50;;;4.48;100.00
57594;BME280;43423;46.510;6.686;2024-01-06T07:00:59;95449.38;;;4.80;100.00
57594;BME280;43423;46.510;6.686;2024-01-06T07:03:25;95450.13;;;4.56;100.00
57594;BME280;43423;46.510;6.686;2024-01-06T07:05:52;95453.91;;;4.83;100.00
57594;BME280;43423;46.510;6.686;2024-01-06T07:08:17;95461.53;;;4.93;100.00
57594;BME280;43423;46.510;6.686;2024-01-06T07:10:43;95456.16;;;4.84;100.00
57594;BME280;43423;46.510;6.686;2024-01-06T07:13:09;95461.31;;;4.58;100.00
57594;BME280;43423;46.510;6.686;2024-01-06T07:15:34;95463.78;;;4.95;100.00
57594;BME280;43423;46.510;6.686;2024-01-06T07:18:00;95465.84;;;4.85;100.00
57594;BME280;43423;46.510;6.686;2024-01-06T07:20:26;95467.50;;;5.07;100.00
57594;BME280;43423;46.510;6.686;2024-01-06T07:22:51;95465.59;;;4.98;100.00
57594;BME280;43423;46.510;6.686;2024-01-06T07:25:17;95468.00;;;4.96;100.00
57594;BME280;43423;46.510;6.686;2024-01-06T07:27:42;95473.47;;;4.96;100.00
57594;BME280;43423;46.510;6.686;2024-01-06T07:30:09;95480.06;;;4.56;100.00
57594;BME280;43423;46.510;6.686;2024-01-06T07:32:34;95478.03;;;4.42;100.00
57594;BME280;43423;46.510;6.686;2024-01-06T07:35:00;95479.31;;;4.56;100.00
57594;BME280;43423;46.510;6.686;2024-01-06T07:37:25;95477.53;;;4.53;100.00
57594;BME280;43423;46.510;6.686;2024-01-06T07:39:51;95482.41;;;4.72;100.00
57594;BME280;43423;46.510;6.686;2024-01-06T07:42:18;95480.94;;;5.10;100.00
57594;BME280;43423;46.510;6.686;2024-01-06T07:44:43;95481.63;;;4.96;100.00
57594;BME280;43423;46.510;6.686;2024-01-06T07:47:10;95478.22;;;5.10;100.00
57594;BME280;43423;46.510;6.686;2024-01-06T07:49:35;95473.47;;;5.35;100.00
57594;BME280;43423;46.510;6.686;2024-01-06T07:52:01;95484.09;;;5.32;100.00
57594;BME280;43423;46.510;6.686;2024-01-06T07:54:28;95486.72;;;5.27;100.00
57594;BME280;43423;46.510;6.686;2024-01-06T07:56:53;95488.16;;;5.13;100.00
57594;BME280;43423;46.510;6.686;2024-01-06T07:59:19;95491.94;;;5.16;100.00
57594;BME280;43423;46.510;6.686;2024-01-06T08:01:45;95482.56;;;5.17;100.00
57594;BME280;43423;46.510;6.686;2024-01-06T08:04:11;95496.31;;;5.22;100.00
57594;BME280;43423;46.510;6.686;2024-01-06T08:06:36;95494.50;;;5.19;100.00
57594;BME280;43423;46.510;6.686;2024-01-06T08:09:02;95507.03;;;5.41;100.00
57594;BME280;43423;46.510;6.686;2024-01-06T08:11:28;95510.91;;;5.49;100.00
57594;BME280;43423;46.510;6.686;2024-01-06T08:13:54;95500.34;;;5.27;100.00
57594;BME280;43423;46.510;6.686;2024-01-06T08:16:20;95500.44;;;5.32;100.00
57594;BME280;43423;46.510;6.686;2024-01-06T08:18:46;95499.94;;;5.19;100.00
57594;BME280;43423;46.510;6.686;2024-01-06T08:21:12;95515.66;;;5.24;100.00
57594;BME280;43423;46.510;6.686;2024-01-06T08:23:37;95509.94;;;5.37;100.00
57594;BME280;43423;46.510;6.686;2024-01-06T08:26:04;95504.75;;;5.24;100.00
57594;BME280;43423;46.510;6.686;2024-01-06T08:28:30;95518.91;;;5.38;100.00
57594;BME280;43423;46.510;6.686;2024-01-06T08:30:56;95514.84;;;4.85;100.00
57594;BME280;43423;46.510;6.686;2024-01-06T08:33:22;95512.53;;;5.17;100.00
57594;BME280;43423;46.510;6.686;2024-01-06T08:35:48;95528.56;;;5.39;100.00
57594;BME280;43423;46.510;6.686;2024-01-06T08:38:14;95529.13;;;5.43;100.00
57594;BME280;43423;46.510;6.686;2024-01-06T08:40:39;95524.91;;;5.42;100.00
57594;BME280;43423;46.510;6.686;2024-01-06T08:43:05;95537.50;;;5.39;100.00
57594;BME280;43423;46.510;6.686;2024-01-06T08:45:31;95536.94;;;5.11;100.00
57594;BME280;43423;46.510;6.686;2024-01-06T08:47:57;95537.59;;;5.06;100.00
57594;BME280;43423;46.510;6.686;2024-01-06T08:50:22;95533.69;;;5.22;100.00
57594;BME280;43423;46.510;6.686;2024-01-06T08:52:48;95524.25;;;5.08;100.00
57594;BME280;43423;46.510;6.686;2024-01-06T08:55:14;95531.31;;;4.91;100.00
57594;BME280;43423;46.510;6.686;2024-01-06T08:57:39;95519.69;;;4.90;100.00
57594;BME280;43423;46.510;6.686;2024-01-06T09:00:05;95520.31;;;5.09;100.00
57594;BME280;43423;46.510;6.686;2024-01-06T09:02:31;95519.84;;;5.11;100.00
57594;BME280;43423;46.510;6.686;2024-01-06T09:04:58;95515.41;;;5.13;100.00
57594;BME280;43423;46.510;6.686;2024-01-06T09:07:24;95518.66;;;5.26;100.00
57594;BME280;43423;46.510;6.686;2024-01-06T09:09:49;95523.59;;;5.13;100.00
57594;BME280;43423;46.510;6.686;2024-01-06T09:12:16;95522.06;;;5.21;100.00
57594;BME280;43423;46.510;6.686;2024-01-06T09:14:42;95516.94;;;5.14;100.00
57594;BME280;43423;46.510;6.686;2024-01-06T09:17:08;95525.81;;;5.24;100.00
57594;BME280;43423;46.510;6.686;2024-01-06T09:19:33;95519.41;;;5.27;100.00
57594;BME280;43423;46.510;6.686;2024-01-06T09:21:59;95525.25;;;5.35;100.00
57594;BME280;43423;46.510;6.686;2024-01-06T09:24:25;95529.88;;;5.43;100.00
57594;BME280;43423;46.510;6.686;2024-01-06T09:26:51;95527.34;;;5.40;100.00
57594;BME280;43423;46.510;6.686;2024-01-06T09:29:17;95535.09;;;5.56;100.00
57594;BME280;43423;46.510;6.686;2024-01-06T09:31:43;95528.59;;;5.53;100.00
57594;BME280;43423;46.510;6.686;2024-01-06T09:34:09;95522.13;;;5.66;98.08
57594;BME280;43423;46.510;6.686;2024-01-06T09:36:36;95533.50;;;5.64;100.00
57594;BME280;43423;46.510;6.686;2024-01-06T09:39:01;95530.28;;;5.51;100.00
57594;BME280;43423;46.510;6.686;2024-01-06T09:41:28;95537.72;;;5.50;100.00
57594;BME280;43423;46.510;6.686;2024-01-06T09:43:53;95540.28;;;5.54;100.00
57594;BME280;43423;46.510;6.686;2024-01-06T09:46:27;95549.94;;;5.55;100.00
57594;BME280;43423;46.510;6.686;2024-01-06T09:48:56;95542.81;;;5.57;100.00
57594;BME280;43423;46.510;6.686;2024-01-06T09:51:23;95551.56;;;5.76;100.00
57594;BME280;43423;46.510;6.686;2024-01-06T09:54:04;95549.50;;;5.71;100.00
57594;BME280;43423;46.510;6.686;2024-01-06T09:56:33;95554.25;;;5.85;100.00
57594;BME280;43423;46.510;6.686;2024-01-06T09:59:00;95554.56;;;6.17;98.89
57594;BME280;43423;46.510;6.686;2024-01-06T10:01:26;95559.44;;;6.13;97.10
57594;BME280;43423;46.510;6.686;2024-01-06T10:03:51;95549.63;;;5.92;98.76
57594;BME280;43423;46.510;6.686;2024-01-06T10:06:18;95562.09;;;5.93;99.24
57594;BME280;43423;46.510;6.686;2024-01-06T10:08:44;95556.44;;;6.11;93.85
57594;BME280;43423;46.510;6.686;2024-01-06T10:11:13;95561.31;;;6.07;98.93
57594;BME280;43423;46.510;6.686;2024-01-06T10:13:39;95558.25;;;5.75;100.00
57594;BME280;43423;46.510;6.686;2024-01-06T10:16:08;95567.00;;;5.79;100.00
57594;BME280;43423;46.510;6.686;2024-01-06T10:18:33;95562.31;;;5.80;100.00
57594;BME280;43423;46.510;6.686;2024-01-06T10:21:04;95557.53;;;5.89;97.59
57594;BME280;43423;46.510;6.686;2024-01-06T10:23:33;95558.56;;;5.92;100.00
57594;BME280;43423;46.510;6.686;2024-01-06T10:25:59;95559.91;;;5.97;100.00
57594;BME280;43423;46.510;6.686;2024-01-06T10:28:25;95570.19;;;6.02;100.00
57594;BME280;43423;46.510;6.686;2024-01-06T10:30:52;95563.22;;;6.01;97.79
57594;BME280;43423;46.510;6.686;2024-01-06T10:33:22;95564.72;;;6.17;99.07
57594;BME280;43423;46.510;6.686;2024-01-06T10:35:49;95570.25;;;6.22;97.33
57594;BME280;43423;46.510;6.686;2024-01-06T10:38:15;95561.88;;;5.96;98.81
57594;BME280;43423;46.510;6.686;2024-01-06T10:40:58;95554.44;;;5.97;97.37
57594;BME280;43423;46.510;6.686;2024-01-06T10:43:27;95554.44;;;5.97;96.81
57594;BME280;43423;46.510;6.686;2024-01-06T10:45:56;95548.44;;;5.93;97.00
57594;BME280;43423;46.510;6.686;2024-01-06T10:48:25;95547.88;;;6.03;97.84
57594;BME280;43423;46.510;6.686;2024-01-06T10:50:51;95553.81;;;6.17;96.99
57594;BME280;43423;46.510;6.686;2024-01-06T10:53:20;95547.50;;;6.10;92.21
57594;BME280;43423;46.510;6.686;2024-01-06T10:55:46;95550.03;;;6.14;92.89
57594;BME280;43423;46.510;6.686;2024-01-06T10:58:14;95551.34;;;6.04;96.87
57594;BME280;43423;46.510;6.686;2024-01-06T11:00:42;95561.97;;;6.31;94.45
57594;BME280;43423;46.510;6.686;2024-01-06T11:03:09;95552.25;;;5.86;93.82
57594;BME280;43423;46.510;6.686;2024-01-06T11:05:36;95553.50;;;6.00;95.33
57594;BME280;43423;46.510;6.686;2024-01-06T11:08:04;95557.75;;;6.15;95.20
57594;BME280;43423;46.510;6.686;2024-01-06T11:10:31;95552.97;;;6.25;95.29
57594;BME280;43423;46.510;6.686;2024-01-06T11:13:09;95546.81;;;6.30;94.43
57594;BME280;43423;46.510;6.686;2024-01-06T11:15:45;95527.81;;;6.21;90.64
57594;BME280;43423;46.510;6.686;2024-01-06T11:18:30;95559.53;;;6.33;90.32
57594;BME280;43423;46.510;6.686;2024-01-06T11:23:39;95547.09;;;6.47;93.28
57594;BME280;43423;46.510;6.686;2024-01-06T11:26:06;95548.91;;;6.35;92.62
57594;BME280;43423;46.510;6.686;2024-01-06T11:28:43;95550.78;;;6.14;98.35
57594;BME280;43423;46.510;6.686;2024-01-06T11:31:10;95535.63;;;6.43;91.24
57594;BME280;43423;46.510;6.686;2024-01-06T11:33:45;95538.47;;;6.19;93.38
57594;BME280;43423;46.510;6.686;2024-01-06T11:36:15;95543.66;;;6.02;95.22
57594;BME280;43423;46.510;6.686;2024-01-06T11:38:41;95531.59;;;6.09;93.51
57594;BME280;43423;46.510;6.686;2024-01-06T11:41:10;95534.59;;;6.26;94.74
57594;BME280;43423;46.510;6.686;2024-01-06T11:43:38;95529.03;;;6.20;97.06
57594;BME280;43423;46.510;6.686;2024-01-06T11:46:07;95524.25;;;6.15;89.93
57594;BME280;43423;46.510;6.686;2024-01-06T11:48:33;95524.25;;;6.15;92.50
57594;BME280;43423;46.510;6.686;2024-01-06T11:50:59;95525.28;;;6.32;91.56
57594;BME280;43423;46.510;6.686;2024-01-06T11:53:26;95519.56;;;6.01;94.92
57594;BME280;43423;46.510;6.686;2024-01-06T11:55:53;95528.47;;;6.16;93.98
57594;BME280;43423;46.510;6.686;2024-01-06T11:58:19;95527.22;;;5.87;98.45
57594;BME280;43423;46.510;6.686;2024-01-06T12:00:55;95513.69;;;6.23;93.02
57594;BME280;43423;46.510;6.686;2024-01-06T12:03:20;95515.41;;;5.91;97.17
57594;BME280;43423;46.510;6.686;2024-01-06T12:05:59;95515.41;;;6.05;96.86
57594;BME280;43423;46.510;6.686;2024-01-06T12:08:24;95502.81;;;5.93;98.35
57594;BME280;43423;46.510;6.686;2024-01-06T12:10:50;95512.19;;;6.07;98.40
57594;BME280;43423;46.510;6.686;2024-01-06T12:13:16;95509.38;;;6.16;97.54
57594;BME280;43423;46.510;6.686;2024-01-06T12:15:43;95503.72;;;6.20;93.64
57594;BME280;43423;46.510;6.686;2024-01-06T12:18:08;95512.09;;;6.16;97.83
57594;BME280;43423;46.510;6.686;2024-01-06T12:20:34;95496.94;;;6.15;95.18
57594;BME280;43423;46.510;6.686;2024-01-06T12:23:00;95500.16;;;6.13;97.33
57594;BME280;43423;46.510;6.686;2024-01-06T12:25:27;95504.09;;;6.12;97.00
57594;BME280;43423;46.510;6.686;2024-01-06T12:27:54;95498.00;;;6.18;98.01
57594;BME280;43423;46.510;6.686;2024-01-06T12:30:22;95500.47;;;6.01;99.79
57594;BME280;43423;46.510;6.686;2024-01-06T12:32:50;95493.75;;;6.17;96.39
57594;BME280;43423;46.510;6.686;2024-01-06T12:35:17;95497.25;;;6.17;96.48
57594;BME280;43423;46.510;6.686;2024-01-06T12:37:44;95491.94;;;6.28;94.16
57594;BME280;43423;46.510;6.686;2024-01-06T12:40:13;95490.66;;;5.94;96.49
57594;BME280;43423;46.510;6.686;2024-01-06T12:42:38;95494.63;;;5.93;97.21
57594;BME280;43423;46.510;6.686;2024-01-06T12:45:06;95480.13;;;6.02;95.74
57594;BME280;43423;46.510;6.686;2024-01-06T12:47:32;95486.81;;;6.01;93.49
57594;BME280;43423;46.510;6.686;2024-01-06T12:49:58;95484.59;;;5.90;94.19
57594;BME280;43423;46.510;6.686;2024-01-06T12:52:23;95493.19;;;5.98;94.98
57594;BME280;43423;46.510;6.686;2024-01-06T12:54:49;95479.03;;;5.84;95.44
57594;BME280;43423;46.510;6.686;2024-01-06T12:57:15;95497.16;;;5.97;96.34
57594;BME280;43423;46.510;6.686;2024-01-06T12:59:41;95486.88;;;5.92;96.20
57594;BME280;43423;46.510;6.686;2024-01-06T13:02:07;95486.50;;;5.99;95.19